Aérodrome :
LOGIN :

S'inscrire | Disclaimer

   EN    FR    IT 

 










Légende :    VFR   VFR Marginal   IFR   IFR Intensif   IFR Très Intensif
Visi : 
Plafond : 
>= 8 km
>= 3000ft
5 à 8 km
1000 à 3000 ft
1500m à 5 km
500 à 1000 ft
800 à 1500m
200 à 500 ft
< 800m
< 200 ft
Symboles :   Orages  Brouillard  Fortes neiges  Fortes précipitations  Vent > 20 kt
SIGMETs :   Divers  Orages  Givrage  Turbulence  Onde Orograph.  Cendres Volcan.






- Altitude de l'aérodrome : 83 ft
- Code IATA : LHR


EGLL - London Heathrow

DERNIER METAR :
  • 172220Z AUTO 26008KT 9999 NCD 04/02 Q1019 NOSIG

METARs EXPIRÉS :
  • 172150Z AUTO 25009KT 9999 NCD 04/02 Q1019 NOSIG
  • 172120Z AUTO 24009KT 9999 NCD 05/02 Q1018 NOSIG
  • 172050Z AUTO 24009KT 9999 NCD 04/02 Q1018 NOSIG
  • 172020Z AUTO 24010KT 9999 NCD 05/02 Q1018 NOSIG
  • 171950Z AUTO 23010KT 9999 NCD 05/02 Q1018 NOSIG

TAF TAF EGLL
Valide du 17 à 18h jusqu'au 19 à 00h UTC


171650Z 1718/1824 23010KT 9999 SCT040
PROB30
TEMPO 1718/1722 7000 SHRA BKN014
PROB30 1804/1809 8000
BECMG 1809/1812 32006KT
PROB30 1821/1824 8000



MET'MAP, la Météo Aéronautique d'un coup d'oeil ! - Copyright ORBIFLY Décembre 2007 - Disclaimer

ORBIFLY MET'MAP TEAM :

Programmation & Développement : Alexandra Zaïnal
Sur une idée originale de : Baudouin d'Aumeries
Assistance à la programmation : Marc-Olivier Méhu
Soutien technique & logistique : Manuel Goepfert

Contact : metmap@orbifly.com




SOURCES & CREDITS :

   NOAA